Tiempo atmosférico en la estación meteorológica de Valderredible, Cubillo de Ebro, Cantabria (765 m.)



Fecha
DESCASC
Temp. máxima en grados centígrados (hora)
DESCASC
Temp. mínima en grados centígrados (hora)
DESCASC
Temp. media en grados centígrados
DESCASC
Racha de viento máxima en m/sg (hora)
DESCASC
Velocidad máxima media en intervalos de 10 minutos(hora)
DESCASC
Precipitaciones diarias en mm
DESCASC
Precipitaciones de 00:00 a 06:00 en mm
DESCASC
Precipitaciones de 06:00 a 12:00 en mm
DESCASC
Precipitaciones de 12:00 a 18:00 en mm
DESCASC
Precipitaciones de 18:00 a 24:00 en mm
DESCASC
19-09-2019 25.6 (17:00) 9.3 (06:00) 17.5 8.33 (15:10) 4.17 (14:40) 0 0 0 0 0
18-09-2019 22.6 (17:20) 13.2 (07:40) 17.9 8.06 (03:10) 3.89 (04:00) 5.2 5 0 0.2 0
17-09-2019 26.9 (15:10) 12.3 (00:00) 19.6 6.11 (15:20) 3.61 (15:30) 2.2 0 0 2.2 0
16-09-2019 25.9 (15:20) 12.4 (00:00) 19.1 11.11 (18:20) 4.72 (18:30) 0 0 0 0 0
15-09-2019 24.3 (13:40) 10.9 (00:00) 17.6 7.78 (15:30) 3.89 (13:50) 0.2 0 0 0.2 0
14-09-2019 26.7 (17:20) 13.4 (00:00) 20.1 10.28 (16:50) 6.67 (16:50) 0.2 0 0.2 0 0
13-09-2019 24.9 (14:50) 9.6 (00:00) 17.3 9.44 (14:10) 5.28 (14:30) 0 0 0 0 0
12-09-2019 25.8 (17:00) 7.5 (00:00) 16.6 7.5 (15:10) 4.17 (15:00) 0 0 0 0 0
11-09-2019 17.6 (15:40) 10.9 (00:00) 14.3 8.89 (16:40) 5 (16:30) 0 0 0 0 0
10-09-2019 12.4 (00:00) 7.5 (06:20) 9.9 11.39 (05:20) 6.11 (05:20) 15.4 0 3.8 9.6 2
09-09-2019 23.1 (15:00) 5.6 (03:00) 14.4 9.72 (16:50) 5.56 (16:30) 0 0 0 0 0
08-09-2019 21 (16:40) 5.3 (00:00) 13.2 7.78 (12:00) 4.17 (14:30) 0 0 0 0 0
07-09-2019 20.9 (15:40) 3.7 (00:00) 12.3 8.89 (14:10) 4.72 (16:50) 0 0 0 0 0
06-09-2019 17.7 (15:30) 9.1 (00:00) 13.4 11.94 (16:40) 5 (15:30) 0.2 0.2 0 0 0
05-09-2019 17 (12:10) 11 (00:00) 14 8.89 (12:50) 4.72 (16:40) 0 0 0 0 0
04-09-2019 22.3 (14:50) 3.8 (00:00) 13 12.5 (17:30) 6.11 (17:50) 0 0 0 0 0
03-09-2019 26.5 (17:20) 5.4 (00:00) 16 9.44 (14:40) 4.17 (13:30) 0 0 0 0 0
02-09-2019 20.3 (14:30) 11.3 (00:00) 15.8 9.72 (16:10) 4.44 (15:30) 0 0 0 0 0
01-09-2019 22.8 (15:10) 12.6 (00:00) 17.7 11.11 (18:30) 5.28 (20:00) 0 0 0 0 0
31-08-2019 33.4 (15:30) 11.8 (00:00) 22.6 10.56 (17:30) 6.11 (17:10) 0 0 0 0 0
30-08-2019 33.7 (17:10) 16.9 (00:00) 25.3 9.17 (16:10) 4.17 (14:40) 0 0 0 0 0
29-08-2019 32.1 (16:40) 17.4 (00:00) 24.7 9.72 (18:30) 5.56 (17:10) 0 0 0 0 0
28-08-2019 30.8 (16:00) 14.7 (00:00) 22.7 8.89 (18:20) 5.28 (18:20) 0 0 0 0 0
27-08-2019 25.8 (16:30) 8.3 (00:00) 17 7.78 (15:40) 4.17 (18:20) 0 0 0 0 0
26-08-2019 25.2 (15:40) 12.4 (00:00) 18.8 7.22 (15:40) 4.17 (16:50) 0 0 0 0 0
25-08-2019 29.7 (14:50) 9.1 (00:00) 19.4 11.67 (16:30) 6.39 (16:10) 21.4 0 0 0 21.4
24-08-2019 34 (17:20) 6.5 (00:00) 20.3 8.33 (19:10) 5 (19:10) 0 0 0 0 0
23-08-2019 33 (17:40) 4 (00:00) 18.5 8.33 (16:10) 3.89 (18:10) 0 0 0 0 0
22-08-2019 27.8 (16:30) 6.2 (00:00) 17 8.06 (15:00) 4.17 (15:00) 0 0 0 0 0
21-08-2019 26.4 (16:10) 11.3 (00:00) 18.8 10 (20:00) 5.28 (20:00) 0 0 0 0 0

Gráficas

Temp. máximas Temp. mínimas Temp. medias Precipitaciones Rachas de viento máximas Velocidades máximas media en intervalos de 10 minutos

Datos horarios

Fecha y hora oficial Temperatura (ºC) Velocidad del viento (km/h) Dirección del viento Racha (km/h) Dirección de racha Precipitación (mm) Presión (hPa) Tendencia (hPa) Humedad (%)
2019-09-19 23:00:00 14.8 0 Calma 5 Oeste 0 -- -- 90
2019-09-19 22:00:00 16.6 0 Calma 15 Norte 0 -- -- 84
2019-09-19 21:00:00 18.4 8 Norte 14 Norte 0 -- -- 77
2019-09-19 20:00:00 21.6 6 Norte 13 Nordeste 0 -- -- 63
2019-09-19 19:00:00 24 8 Nordeste 18 Nordeste 0 -- -- 49
2019-09-19 18:00:00 24.8 12 Este 21 Este 0 -- -- 44
2019-09-19 17:00:00 25.6 9 Sudeste 21 Este 0 -- -- 43
2019-09-19 16:00:00 24.9 13 Este 30 Este 0 -- -- 46
2019-09-19 15:00:00 24.2 13 Este 27 Sudeste 0 -- -- 48
2019-09-19 14:00:00 22.9 13 Sudeste 21 Este 0 -- -- 53
2019-09-19 13:00:00 19.8 3 Nordeste 14 Este 0 -- -- 69
2019-09-19 12:00:00 15.9 8 Este 13 Este 0 -- -- 85
2019-09-19 11:00:00 11.9 4 Sudeste 8 Sudeste 0 -- -- 99
2019-09-19 10:00:00 10.6 2 Norte 6 Noroeste 0 -- -- 99
2019-09-19 09:00:00 10 4 Noroeste 11 Noroeste 0 -- -- 98
2019-09-19 08:00:00 9.9 8 Noroeste 11 Oeste 0 -- -- 98
2019-09-19 07:00:00 9.6 7 Oeste 10 Oeste 0 -- -- 98
2019-09-19 06:00:00 9.3 3 Oeste 7 Noroeste 0 -- -- 97
2019-09-19 05:00:00 9.7 4 Oeste 6 Oeste 0 -- -- 96
2019-09-19 04:00:00 10.4 5 Oeste 8 Oeste 0 -- -- 95
2019-09-19 03:00:00 11.8 0 Calma 14 Noroeste 0 -- -- 95
2019-09-19 02:00:00 12.8 6 Noroeste 14 Norte 0 -- -- 96
2019-09-19 01:00:00 13.1 0 Calma 6 Oeste 0 -- -- 93
2019-09-19 00:00:00 14.7 0 Calma 6 Sudeste 0 -- -- 91
2019-09-18 23:00:00 16.1 0 Calma 8 Nordeste 0 -- -- 88
2019-09-18 22:00:00 16.8 2 Norte 9 Nordeste 0 -- -- 85
2019-09-18 21:00:00 17.6 5 Norte 16 Norte 0 -- -- 81
2019-09-18 20:00:00 19 7 Norte 22 Norte 0 -- -- 77
2019-09-18 19:00:00 22 10 Nordeste 21 Nordeste 0 -- -- 65
2019-09-18 18:00:00 22.1 10 Noroeste 24 Norte 0 -- -- 65
2019-09-18 17:00:00 22.1 5 Norte 14 Nordeste 0 -- -- 65
2019-09-18 16:00:00 20.7 5 Noroeste 15 Noroeste 0 -- -- 69
2019-09-18 15:00:00 20.1 8 Noroeste 15 Noroeste 0.2 -- -- 69
2019-09-18 14:00:00 21.3 4 Noroeste 15 Norte 0 -- -- 68
2019-09-18 13:00:00 19.4 9 Noroeste 22 Noroeste 0 -- -- 74
2019-09-18 12:00:00 20 6 Este 11 Este 0 -- -- 78
2019-09-18 11:00:00 18.2 2 Oeste 5 Oeste 0 -- -- 80
2019-09-18 10:00:00 15.5 2 Sudeste 5 Sudeste 0 -- -- 96
2019-09-18 09:00:00 13.6 0 Calma 3 Oeste 0 -- -- 98
2019-09-18 08:00:00 13.2 2 Oeste 9 Oeste 0 -- -- 97
2019-09-18 07:00:00 13.4 3 Oeste 9 Nordeste 0 -- -- 96
2019-09-18 06:00:00 13.7 4 Noroeste 9 Noroeste 0 -- -- 95
2019-09-18 05:00:00 14.1 5 Este 18 Oeste 1 -- -- 94
2019-09-18 04:00:00 14.5 14 Noroeste 29 Sudoeste -- -- -- 91
2019-09-18 03:00:00 15.9 4 Sudeste 8 Este 0 -- -- 96
2019-09-18 02:00:00 15.7 2 Noroeste 11 Oeste 0 -- -- 96
2019-09-18 01:00:00 15.8 2 Sudeste 5 Sudeste 0 -- -- 95
2019-09-18 00:00:00 16.8 2 Norte 12 Norte 0 -- -- 94
2019-09-17 23:00:00 17.4 4 Nordeste 8 Nordeste 0 -- -- 91
2019-09-17 22:00:00 18.5 3 Noroeste 15 Norte 0 -- -- 89
2019-09-17 21:00:00 19.7 7 Norte 12 Noroeste 0 -- -- 84
2019-09-15 18:00:00 20.1 11 Este 19 Este 0 -- -- 64
2019-09-15 17:00:00 20.3 10 Este 15 Este 0 -- -- 61
2019-09-15 16:00:00 19.3 5 Noroeste 28 Sudoeste 0.2 -- -- 69
2019-09-15 15:00:00 23.4 10 Este 19 Este 0 -- -- 46
2019-09-15 14:00:00 23.7 14 Este 28 Este 0 -- -- 44
2019-09-15 13:00:00 22.7 6 Sudeste 16 Norte 0 -- -- 54
2019-09-15 12:00:00 19.4 8 Noroeste 16 Noroeste 0 -- -- 66
2019-09-15 11:00:00 14.8 3 Este 10 Este 0 -- -- 88
2019-09-15 10:00:00 13.4 3 Sudeste 5 Sudeste 0 -- -- 93
2019-09-15 09:00:00 11.6 4 Oeste 7 Oeste 0 -- -- 96
2019-09-15 08:00:00 10.9 2 Este 5 Sudoeste 0 -- -- 95
2019-09-15 07:00:00 11.3 3 Sudoeste 6 Sudoeste 0 -- -- 94
2019-09-15 06:00:00 11.8 2 Sudoeste 5 Oeste 0 -- -- 93
2019-09-15 05:00:00 12.4 0 Calma 5 Noroeste 0 -- -- 92
2019-09-15 04:00:00 13 0 Calma 12 Oeste 0 -- -- 90
2019-09-15 03:00:00 13.7 4 Oeste 10 Noroeste 0 -- -- 87
2019-09-15 02:00:00 14.2 5 Oeste 8 Noroeste 0 -- -- 85
2019-09-15 01:00:00 15.2 3 Sudoeste 6 Oeste 0 -- -- 81
2019-09-15 00:00:00 15.7 3 Este 8 Oeste 0 -- -- 77
2019-09-14 23:00:00 16.6 5 Oeste 9 Sudoeste 0 -- -- 71
2019-09-14 22:00:00 20.4 5 Este 23 Este 0 -- -- 54
2019-09-14 21:00:00 22.2 11 Este 24 Este 0 -- -- 45
2019-09-14 20:00:00 23.6 13 Este 26 Nordeste 0 -- -- 41
2019-09-14 19:00:00 25.1 17 Nordeste 34 Este 0 -- -- 39
2019-09-14 18:00:00 26.5 18 Este 34 Nordeste 0 -- -- 37
2019-09-14 17:00:00 26.4 19 Este 37 Este 0 -- -- 37
2019-09-14 16:00:00 26.4 13 Nordeste 29 Este 0 -- -- 37
2019-09-14 15:00:00 25.8 13 Este 34 Este 0 -- -- 40
2019-09-14 14:00:00 25 18 Este 35 Este 0 -- -- 45
2019-09-14 13:00:00 23.8 9 Sudeste 16 Sudeste 0 -- -- 54
2019-09-14 12:00:00 21 0 Calma 2 Sudeste 0 -- -- 67
2019-09-14 11:00:00 18.9 0 Calma 0 Calma 0 -- -- 73
2019-09-14 10:00:00 14.5 0 Calma 2 Oeste 0 -- -- 93
2019-09-14 09:00:00 13.6 0 Calma 2 Oeste 0.2 -- -- 95
2019-09-14 08:00:00 13.4 0 Calma 2 Oeste 0 -- -- 95
2019-09-14 07:00:00 13.5 0 Calma 6 Oeste 0 -- -- 94
2019-09-14 06:00:00 13.6 0 Calma 8 Oeste 0 -- -- 93
2019-09-14 05:00:00 13.8 0 Calma 9 Sudoeste 0 -- -- 93
2019-09-14 04:00:00 14.1 4 Oeste 9 Oeste 0 -- -- 93
2019-09-14 03:00:00 14.1 5 Noroeste 7 Noroeste 0 -- -- 93
2019-09-14 02:00:00 15.1 3 Oeste 6 Noroeste 0 -- -- 89
2019-09-14 01:00:00 15.5 2 Nordeste 8 Oeste 0 -- -- 90
2019-09-14 00:00:00 16.2 0 Calma 5 Este 0 -- -- 87
2019-09-13 23:00:00 17.2 2 Nordeste 8 Norte 0 -- -- 85
2019-09-13 22:00:00 17.7 3 Norte 14 Este 0 -- -- 81
2019-09-13 21:00:00 18.6 12 Norte 23 Norte 0 -- -- 76
2019-09-13 20:00:00 20.7 12 Norte 21 Norte 0 -- -- 67
2019-09-13 19:00:00 22.6 11 Norte 19 Norte 0 -- -- 60
2019-09-13 18:00:00 23.9 13 Nordeste 28 Norte 0 -- -- 51
2019-09-13 17:00:00 24.3 13 Nordeste 30 Nordeste 0 -- -- 46
2019-09-13 16:00:00 24.6 17 Nordeste 31 Nordeste 0 -- -- 40
2019-09-13 15:00:00 24.6 17 Nordeste 34 Este 0 -- -- 43
2019-09-13 14:00:00 23.9 18 Nordeste 33 Nordeste 0 -- -- 40
2019-09-13 13:00:00 22.8 11 Nordeste 25 Nordeste 0 -- -- 45
2019-09-13 12:00:00 18.6 7 Este 11 Este 0 -- -- 69
2019-09-13 11:00:00 13.4 4 Este 9 Sudeste 0 -- -- 99
2019-09-13 10:00:00 10.4 3 Este 12 Noroeste 0 -- -- 98
2019-09-13 09:00:00 9.6 6 Noroeste 13 Oeste 0 -- -- 98
2019-09-13 08:00:00 10 5 Noroeste 9 Noroeste 0 -- -- 98
2019-09-13 07:00:00 10.3 0 Calma 9 Noroeste 0 -- -- 97
2019-09-13 06:00:00 10.8 5 Noroeste 10 Noroeste 0 -- -- 97
2019-09-13 05:00:00 10.9 5 Noroeste 8 Noroeste 0 -- -- 97
2019-09-13 04:00:00 11.8 2 Oeste 5 Oeste 0 -- -- 97
2019-09-13 03:00:00 11.2 0 Calma 5 Sudoeste 0 -- -- 96
2019-09-13 02:00:00 10.6 3 Oeste 8 Noroeste 0 -- -- 95
2019-09-13 01:00:00 11.6 3 Oeste 7 Noroeste 0 -- -- 94
2019-09-13 00:00:00 12.7 3 Nordeste 6 Sudoeste 0 -- -- 92
2019-09-12 23:00:00 14.3 0 Calma 6 Sudeste 0 -- -- 89
2019-09-12 22:00:00 16.2 2 Sudeste 9 Norte 0 -- -- 83
2019-09-12 21:00:00 18.1 7 Norte 15 Norte 0 -- -- 77
2019-09-12 20:00:00 21.4 7 Norte 15 Norte 0 -- -- 65
2019-09-12 19:00:00 23.7 9 Norte 20 Norte 0 -- -- 55
2019-09-12 18:00:00 25.2 10 Nordeste 23 Este 0 -- -- 47
2019-09-12 17:00:00 25.8 9 Este 21 Este 0 -- -- 42
2019-09-12 16:00:00 24.8 10 Este 27 Sudeste 0 -- -- 43
2019-09-12 15:00:00 24 15 Sudeste 23 Sudeste 0 -- -- 45
2019-09-12 14:00:00 22.2 8 Sur 18 Este 0 -- -- 51
2019-09-12 13:00:00 21 12 Sudeste 23 Sudeste 0 -- -- 54
2019-09-12 12:00:00 18.1 5 Sudeste 14 Este 0 -- -- 67
2019-09-12 11:00:00 15.6 3 Sur 7 Sur 0 -- -- 76
2019-09-12 10:00:00 11.9 3 Sudoeste 6 Sudoeste 0 -- -- 98
2019-09-12 09:00:00 9.6 2 Sudeste 5 Nordeste 0 -- -- 98
2019-09-12 08:00:00 9 2 Norte 9 Sudoeste 0 -- -- 98
2019-09-12 07:00:00 8.6 2 Este 9 Noroeste 0 -- -- 97
2019-09-12 06:00:00 7.9 4 Oeste 8 Sudoeste 0 -- -- 97
2019-09-12 05:00:00 7.6 3 Nordeste 6 Nordeste 0 -- -- 97
2019-09-12 04:00:00 7.7 2 Este 6 Sudeste 0 -- -- 95
2019-09-12 03:00:00 8.2 3 Sudeste 8 Sudeste 0 -- -- 95
2019-09-12 02:00:00 9.4 3 Norte 13 Nordeste 0 -- -- 93
2019-09-12 01:00:00 9.7 2 Este 12 Norte 0 -- -- 92
2019-09-12 00:00:00 11.1 8 Norte 12 Norte 0 -- -- 90
2019-09-11 23:00:00 11.7 3 Nordeste 14 Nordeste 0 -- -- 85
2019-09-11 22:00:00 12.5 5 Norte 16 Noroeste 0 -- -- 82
2019-09-11 21:00:00 13 5 Norte 14 Noroeste 0 -- -- 81
2019-09-11 20:00:00 14.5 8 Noroeste 21 Norte 0 -- -- 76
2019-09-11 19:00:00 15.8 11 Norte 28 Nordeste 0 -- -- 68
2019-09-11 18:00:00 16.7 12 Norte 24 Norte 0 -- -- 66
2019-09-11 17:00:00 16.1 15 Nordeste 32 Norte 0 -- -- 68
2019-09-11 16:00:00 17.2 13 Norte 29 Norte 0 -- -- 66
2019-09-11 15:00:00 15.8 13 Norte 30 Norte 0 -- -- 70
2019-09-11 14:00:00 15 14 Norte 27 Norte 0 -- -- 76
2019-09-11 13:00:00 13.5 9 Norte 24 Noroeste 0 -- -- 79
2019-09-11 12:00:00 13.4 10 Norte 32 Noroeste 0 -- -- 79
2019-09-11 11:00:00 12.7 6 Norte 26 Norte 0 -- -- 83
2019-09-11 10:00:00 12.1 10 Norte 23 Norte 0 -- -- 82
2019-09-11 09:00:00 11.9 9 Norte 26 Norte 0 -- -- 83
2019-09-11 08:00:00 11.5 10 Norte 22 Nordeste 0 -- -- 86
2019-09-11 07:00:00 11.1 15 Norte 27 Norte 0 -- -- 87
2019-09-11 06:00:00 11.4 4 Oeste 12 Oeste 0 -- -- 86
2019-09-11 05:00:00 11.4 5 Oeste 14 Noroeste 0 -- -- 88
2019-09-11 04:00:00 11.5 8 Norte 21 Norte 0 -- -- 86
2019-09-11 03:00:00 11.5 13 Norte 30 Norte 0 -- -- 86
2019-09-11 02:00:00 11.3 5 Norte 17 Nordeste 0 -- -- 86
2019-09-11 01:00:00 11.3 5 Nordeste 22 Norte 0 -- -- 84
2019-09-11 00:00:00 11.1 6 Sudoeste 30 Noroeste 0 -- -- 86
2019-09-10 23:00:00 11.1 7 Noroeste 26 Norte 0 -- -- 88
2019-09-10 22:00:00 11.3 13 Norte 36 Noroeste 0 -- -- 84
2019-09-10 21:00:00 11.1 7 Este 24 Sudeste 1 -- -- 91
2019-09-10 20:00:00 11.2 5 Nordeste 37 Norte 0.8 -- -- 90
2019-09-10 19:00:00 11.7 15 Noroeste 38 Norte 0.2 -- -- 85
2019-09-10 18:00:00 11.6 14 Norte 36 Norte 0.4 -- -- 89
2019-09-10 17:00:00 11.7 8 Oeste 30 Noroeste 0 -- -- 89
2019-09-10 16:00:00 11.7 9 Noroeste 27 Noroeste 2.2 -- -- 91
2019-09-10 15:00:00 10.9 8 Noroeste 22 Noroeste 2.6 -- -- 90
2019-09-10 14:00:00 10.7 5 Noroeste 19 Oeste 1.8 -- -- 93
2019-09-10 13:00:00 9.1 8 Oeste 23 Oeste 2.6 -- -- 93
2019-09-10 12:00:00 9.2 8 Oeste 14 Oeste 2.4 -- -- 92
2019-09-10 11:00:00 9.2 6 Oeste 22 Oeste 0.2 -- -- 87
2019-09-10 10:00:00 9.2 11 Oeste 27 Sudoeste 0.6 -- -- 83
2019-09-10 09:00:00 8.4 5 Noroeste 21 Noroeste 0.6 -- -- 86
2019-09-10 08:00:00 9.4 12 Noroeste 40 Oeste 0 -- -- 69
2019-09-10 07:00:00 8.6 17 Noroeste 30 Oeste 0 -- -- 79
2019-09-10 06:00:00 7.9 4 Oeste 41 Noroeste 0 -- -- 80
2019-09-10 05:00:00 10.3 14 Noroeste 31 Noroeste 0 -- -- 68
2019-09-10 04:00:00 9.8 3 Sudoeste 24 Oeste 0 -- -- 67
2019-09-10 03:00:00 10.3 9 Oeste 38 Noroeste 0 -- -- 69
2019-09-10 02:00:00 10.8 12 Noroeste 39 Noroeste 0 -- -- 76
2019-09-10 01:00:00 11.6 18 Noroeste 39 Norte 0 -- -- 74
2019-09-10 00:00:00 12.4 6 Norte 31 Noroeste 0 -- -- 79
2019-09-09 23:00:00 12.1 7 Este 12 Nordeste 0 -- -- 85
2019-09-09 22:00:00 13.1 6 Nordeste 18 Norte 0 -- -- 79
2019-09-09 21:00:00 13.6 4 Este 20 Norte 0 -- -- 78
2019-09-09 20:00:00 14.4 8 Noroeste 24 Norte 0 -- -- 75
2019-09-09 19:00:00 16.1 12 Norte 29 Norte 0 -- -- 68
2019-09-09 18:00:00 15.4 13 Norte 34 Noroeste 0 -- -- 71
2019-09-09 17:00:00 17.3 20 Norte 35 Norte 0 -- -- 65
2019-09-09 16:00:00 19.9 18 Norte 33 Noroeste 0 -- -- 58
2019-09-09 15:00:00 23.1 7 Este 15 Este 0 -- -- 45
2019-09-09 14:00:00 20.2 9 Sudeste 14 Este 0 -- -- 50
2019-09-09 13:00:00 16.9 6 Este 13 Este 0 -- -- 67
2019-09-09 12:00:00 13.8 6 Este 12 Sudeste 0 -- -- 76
2019-09-09 11:00:00 11 4 Nordeste 9 Sudeste 0 -- -- 86
2019-09-09 10:00:00 9.6 4 Sudeste 6 Sudeste 0 -- -- 91
2019-09-09 09:00:00 9 3 Este 6 Noroeste 0 -- -- 94
2019-09-09 08:00:00 8.7 3 Sudoeste 13 Noroeste 0 -- -- 96
2019-09-09 07:00:00 8.7 3 Noroeste 7 Oeste 0 -- -- 95
2019-09-09 06:00:00 8 5 Oeste 10 Oeste 0 -- -- 95
2019-09-09 05:00:00 7.4 0 Calma 4 Este 0 -- -- 96
2019-09-09 04:00:00 6.5 0 Calma 8 Oeste 0 -- -- 95
2019-09-09 03:00:00 5.6 0 Calma 5 Oeste 0 -- -- 94
2019-09-09 02:00:00 6.4 3 Oeste 7 Oeste 0 -- -- 93
2019-09-09 01:00:00 7.5 2 Oeste 8 Noroeste 0 -- -- 92
2019-09-09 00:00:00 8.8 2 Oeste 6 Oeste 0 -- -- 89
2019-09-08 23:00:00 10.4 0 Calma 5 Noroeste 0 -- -- 83
2019-09-08 22:00:00 12.3 3 Nordeste 14 Norte 0 -- -- 77
2019-09-08 21:00:00 14 11 Norte 18 Noroeste 0 -- -- 72
2019-09-08 20:00:00 16.8 10 Norte 25 Norte 0 -- -- 59
2019-09-08 19:00:00 19 12 Norte 26 Noroeste 0 -- -- 53
2019-09-08 18:00:00 20.8 11 Norte 26 Norte 0 -- -- 49
2019-09-08 17:00:00 20.8 10 Norte 26 Noroeste 0 -- -- 48
2019-09-08 16:00:00 20.5 12 Norte 25 Nordeste 0 -- -- 50
2019-09-08 15:00:00 20.2 13 Norte 28 Oeste 0 -- -- 51
2019-09-08 14:00:00 19.8 12 Norte 25 Norte 0 -- -- 52
2019-09-08 13:00:00 18.4 11 Norte 23 Norte 0 -- -- 58
2019-09-08 12:00:00 16.8 13 Nordeste 28 Este 0 -- -- 65
2019-09-08 11:00:00 14 5 Este 9 Este 0 -- -- 84
2019-09-08 10:00:00 11.1 3 Este 8 Este 0 -- -- 93
2019-09-08 09:00:00 9.4 0 Calma 6 Noroeste 0 -- -- 95
2019-09-08 08:00:00 8.2 3 Este 5 Este 0 -- -- 95
2019-09-08 07:00:00 7.9 0 Calma 3 Oeste 0 -- -- 96
2019-09-08 06:00:00 7.2 0 Calma 6 Noroeste 0 -- -- 96
2019-09-08 05:00:00 5.7 0 Calma 8 Noroeste 0 -- -- 95
2019-09-08 04:00:00 5.4 3 Oeste 5 Oeste 0 -- -- 94
2019-09-08 03:00:00 6 3 Oeste 5 Oeste 0 -- -- 93
2019-09-08 02:00:00 6.9 0 Calma 6 Oeste 0 -- -- 93
2019-09-08 01:00:00 7.9 2 Oeste 5 Oeste 0 -- -- 90
2019-09-08 00:00:00 9.4 0 Calma 8 Nordeste 0 -- -- 86
2019-09-07 23:00:00 11.4 3 Nordeste 21 Norte 0 -- -- 80
2019-09-07 22:00:00 12.6 11 Norte 23 Norte 0 -- -- 76
2019-09-07 21:00:00 13.8 12 Norte 24 Norte 0 -- -- 66
2019-09-07 20:00:00 15.9 12 Norte 30 Noroeste 0 -- -- 63
2019-09-07 19:00:00 18.1 12 Norte 31 Noroeste 0 -- -- 56
2019-09-07 18:00:00 19.4 14 Norte 27 Noroeste 0 -- -- 53
2019-09-07 17:00:00 20.1 13 Norte 32 Norte 0 -- -- 50
2019-09-07 16:00:00 20.6 13 Nordeste 31 Nordeste 0 -- -- 47
2019-09-07 15:00:00 20.3 13 Norte 32 Nordeste 0 -- -- 47
2019-09-07 14:00:00 19.7 12 Nordeste 23 Nordeste 0 -- -- 44
2019-09-07 13:00:00 18.5 10 Nordeste 25 Nordeste 0 -- -- 49
2019-09-07 12:00:00 16.5 14 Este 26 Este 0 -- -- 55
2019-09-07 11:00:00 14.4 12 Nordeste 19 Nordeste 0 -- -- 63
2019-09-07 10:00:00 11.5 6 Este 10 Este 0 -- -- 79
2019-09-07 09:00:00 6 5 Este 9 Este 0 -- -- 96
2019-09-07 08:00:00 3.8 2 Sudeste 5 Nordeste 0 -- -- 95
2019-09-07 07:00:00 4.9 0 Calma 6 Nordeste 0 -- -- 93
2019-09-07 06:00:00 6 4 Este 11 Norte 0 -- -- 91
2019-09-07 05:00:00 7.8 4 Nordeste 12 Este 0 -- -- 90
2019-09-07 04:00:00 8.5 5 Este 15 Este 0 -- -- 88
2019-09-07 03:00:00 9.1 8 Este 17 Este 0 -- -- 86
2019-09-07 02:00:00 8.9 8 Este 20 Este 0 -- -- 85
2019-09-07 01:00:00 9.9 8 Nordeste 21 Este 0 -- -- 82
2019-09-07 00:00:00 10.2 11 Este 21 Nordeste 0 -- -- 82
2019-09-06 23:00:00 10 8 Este 15 Este 0 -- -- 83
2019-09-06 22:00:00 10.7 4 Este 17 Este 0 -- -- 79
2019-09-06 21:00:00 11.8 10 Este 23 Nordeste 0 -- -- 74
2019-09-06 20:00:00 13.9 13 Nordeste 27 Nordeste 0 -- -- 62
2019-09-06 19:00:00 15.3 13 Norte 29 Nordeste 0 -- -- 58
2019-09-06 18:00:00 16.4 17 Nordeste 36 Nordeste 0 -- -- 49
2019-09-06 17:00:00 17.1 14 Norte 43 Noroeste 0 -- -- 54
2019-09-06 16:00:00 16.3 14 Norte 35 Nordeste 0 -- -- 54
2019-09-06 15:00:00 16.3 17 Nordeste 36 Nordeste 0 -- -- 55
2019-09-06 14:00:00 16.2 12 Nordeste 30 Norte 0 -- -- 60
2019-09-06 13:00:00 14.3 12 Norte 28 Nordeste 0 -- -- 74
2019-09-06 12:00:00 13.3 9 Norte 28 Norte 0 -- -- 69
2019-09-06 11:00:00 13.8 14 Noroeste 24 Noroeste 0 -- -- 66
2019-09-06 10:00:00 13.3 11 Norte 25 Norte 0 -- -- 69
2019-09-06 09:00:00 11 10 Norte 19 Norte 0 -- -- 80
2019-09-06 08:00:00 9.3 6 Nordeste 17 Nordeste 0 -- -- 86
2019-09-06 07:00:00 10.3 6 Nordeste 16 Nordeste 0 -- -- 84
2019-09-06 06:00:00 10.5 6 Nordeste 17 Nordeste 0 -- -- 85
2019-09-06 05:00:00 10.9 9 Nordeste 21 Nordeste 0.2 -- -- 83
2019-09-06 04:00:00 11.2 8 Nordeste 18 Este 0 -- -- 83
2019-09-06 03:00:00 11 5 Nordeste 13 Nordeste 0 -- -- 86
2019-09-06 02:00:00 11.2 4 Este 16 Nordeste 0 -- -- 84
2019-09-06 01:00:00 11.1 6 Este 19 Nordeste 0 -- -- 82
2019-09-06 00:00:00 11.2 10 Nordeste 24 Nordeste 0 -- -- 82
2019-09-05 23:00:00 11.2 9 Nordeste 22 Nordeste 0 -- -- 82
2019-09-05 22:00:00 11.1 7 Norte 21 Norte 0 -- -- 84
2019-09-05 21:00:00 12.1 11 Norte 24 Norte 0 -- -- 80
2019-09-05 20:00:00 13.1 9 Norte 24 Noroeste 0 -- -- 81
2019-09-05 19:00:00 14.2 12 Norte 29 Noroeste 0 -- -- 81
2019-09-05 18:00:00 14.7 8 Nordeste 28 Norte 0 -- -- 82
2019-09-05 17:00:00 16.9 13 Noroeste 29 Noroeste 0 -- -- 63
2019-09-05 16:00:00 15.9 11 Norte 31 Norte 0 -- -- 66
2019-09-05 15:00:00 15.7 10 Norte 29 Norte 0 -- -- 67
2019-09-05 14:00:00 15.6 12 Nordeste 27 Noroeste 0 -- -- 62
2019-09-05 13:00:00 16.5 14 Nordeste 32 Nordeste 0 -- -- 61
2019-09-05 12:00:00 16.5 12 Norte 30 Nordeste 0 -- -- 59
2019-09-05 11:00:00 14.7 12 Norte 28 Nordeste 0 -- -- 67
2019-09-05 10:00:00 11.9 6 Nordeste 25 Nordeste 0 -- -- 84
2019-09-05 09:00:00 11.5 6 Este 16 Nordeste 0 -- -- 83
2019-09-05 08:00:00 11.2 5 Nordeste 23 Norte 0 -- -- 85
2019-09-05 07:00:00 11.6 4 Norte 19 Este 0 -- -- 89
2019-09-05 06:00:00 12.3 6 Este 22 Norte 0 -- -- 85
2019-09-05 05:00:00 13 9 Nordeste 25 Nordeste 0 -- -- 83
2019-09-05 04:00:00 13.3 7 Norte 24 Nordeste 0 -- -- 86
2019-09-05 03:00:00 13.7 8 Norte 28 Este 0 -- -- 84
2019-09-05 02:00:00 13.4 7 Nordeste 14 Norte 0 -- -- 83
2019-09-05 01:00:00 12.8 5 Este 20 Este 0 -- -- 80
2019-09-05 00:00:00 13.5 6 Nordeste 17 Este 0 -- -- 77
2019-09-04 23:00:00 14 10 Este 22 Este 0 -- -- 75
2019-09-04 22:00:00 14.3 11 Nordeste 22 Nordeste 0 -- -- 73
2019-09-04 21:00:00 15.1 9 Este 21 Norte 0 -- -- 73
2019-09-04 20:00:00 16.8 11 Norte 38 Este 0 -- -- 65
2019-09-04 19:00:00 19.1 13 Norte 36 Noroeste 0 -- -- 56
2019-09-04 18:00:00 19.8 20 Noroeste 45 Norte 0 -- -- 55
2019-09-04 17:00:00 20.9 20 Norte 40 Norte 0 -- -- 53
2019-09-04 16:00:00 22.2 15 Norte 35 Noroeste 0 -- -- 51
2019-09-04 15:00:00 22 18 Noroeste 31 Noroeste 0 -- -- 51
2019-09-04 14:00:00 22 16 Norte 30 Norte 0 -- -- 48
2019-09-04 13:00:00 21.8 10 Norte 23 Noroeste 0 -- -- 43
2019-09-04 12:00:00 17 11 Este 15 Este 0 -- -- 64
2019-09-04 11:00:00 12.2 6 Este 10 Este 0 -- -- 85
2019-09-04 10:00:00 6.5 4 Este 7 Este 0 -- -- 98
2019-09-04 09:00:00 4.6 0 Calma 6 Sudoeste 0 -- -- 97
2019-09-04 08:00:00 3.9 4 Oeste 8 Noroeste 0 -- -- 97
2019-09-04 07:00:00 3.9 0 Calma 3 Sudoeste 0 -- -- 96
2019-09-04 06:00:00 4 0 Calma 5 Oeste 0 -- -- 95
2019-09-04 05:00:00 4.6 2 Oeste 9 Oeste 0 -- -- 94
2019-09-04 04:00:00 5.4 3 Oeste 6 Oeste 0 -- -- 94
2019-09-04 03:00:00 6.5 0 Calma 10 Oeste 0 -- -- 93
2019-09-04 02:00:00 7.5 3 Oeste 5 Oeste 0 -- -- 91
2019-09-04 01:00:00 8.8 0 Calma 5 Oeste 0 -- -- 89
2019-09-04 00:00:00 10.2 0 Calma 6 Noroeste 0 -- -- 84
2019-09-03 23:00:00 12.7 2 Sudeste 7 Noroeste 0 -- -- 78
2019-09-03 22:00:00 15.9 2 Noroeste 13 Este 0 -- -- 65
2019-09-03 21:00:00 18.7 5 Este 25 Norte 0 -- -- 59
2019-09-03 20:00:00 22 12 Noroeste 21 Norte 0 -- -- 50
2019-09-03 19:00:00 24.7 11 Norte 19 Norte 0 -- -- 39
2019-09-03 18:00:00 26.1 10 Nordeste 23 Nordeste 0 -- -- 32
2019-09-03 17:00:00 26.4 7 Este 26 Este 0 -- -- 31
2019-09-03 16:00:00 25.4 13 Nordeste 30 Este 0 -- -- 30
2019-09-03 15:00:00 24.6 12 Sudeste 34 Este 0 -- -- 34
2019-09-03 14:00:00 22.9 14 Este 28 Este 0 -- -- 39
2019-09-03 13:00:00 21 13 Nordeste 24 Sudeste 0 -- -- 40
2019-09-03 12:00:00 17.6 6 Sudeste 14 Sudeste 0 -- -- 62
2019-09-03 11:00:00 13.3 4 Este 10 Este 0 -- -- 79
2019-09-03 10:00:00 7.6 6 Este 9 Este 0 -- -- 98
2019-09-03 09:00:00 6 2 Este 7 Oeste 0 -- -- 97
2019-09-03 08:00:00 5.5 3 Oeste 12 Noroeste 0 -- -- 96
2019-09-03 07:00:00 6.1 2 Nordeste 16 Norte 0 -- -- 95
2019-09-03 06:00:00 6.5 6 Oeste 12 Noroeste 0 -- -- 95
2019-09-03 05:00:00 7 5 Oeste 10 Oeste 0 -- -- 95
2019-09-03 04:00:00 7.7 6 Oeste 8 Oeste 0 -- -- 95
2019-09-03 03:00:00 7.7 4 Sudoeste 9 Noroeste 0 -- -- 93
2019-09-03 02:00:00 7.7 4 Oeste 8 Oeste 0 -- -- 92
2019-09-03 01:00:00 9.2 3 Oeste 9 Norte 0 -- -- 89
2019-09-03 00:00:00 11.3 6 Norte 12 Norte 0 -- -- 86
2019-09-02 23:00:00 12.1 8 Norte 15 Norte 0 -- -- 83
2019-09-02 22:00:00 13.1 7 Norte 13 Norte 0 -- -- 79
2019-09-02 21:00:00 14.3 7 Norte 24 Noroeste 0 -- -- 74
2019-09-02 20:00:00 16.6 9 Norte 29 Norte 0 -- -- 62
2019-09-02 19:00:00 18.3 12 Norte 30 Norte 0 -- -- 58
2019-09-02 18:00:00 19.2 14 Norte 30 Nordeste 0 -- -- 55
2019-09-02 17:00:00 19.6 13 Nordeste 35 Noroeste 0 -- -- 51
2019-09-02 16:00:00 19.4 13 Norte 34 Este 0 -- -- 53
2019-09-02 15:00:00 20.1 13 Norte 24 Nordeste 0 -- -- 51
2019-09-02 14:00:00 18.9 12 Norte 26 Norte 0 -- -- 52
2019-09-02 13:00:00 18.4 13 Norte 24 Nordeste 0 -- -- 53
2019-09-02 12:00:00 17.3 13 Nordeste 32 Nordeste 0 -- -- 54
2019-09-02 11:00:00 15.8 14 Nordeste 25 Nordeste 0 -- -- 58
2019-09-02 10:00:00 14.7 12 Nordeste 24 Nordeste 0 -- -- 66
2019-09-02 09:00:00 12.7 10 Nordeste 18 Nordeste 0 -- -- 79
2019-09-02 08:00:00 12.3 7 Este 18 Nordeste 0 -- -- 80
2019-09-02 07:00:00 12.3 9 Este 20 Este 0 -- -- 80
2019-09-02 06:00:00 12.3 5 Este 15 Norte 0 -- -- 82
2019-09-02 05:00:00 12.4 8 Nordeste 17 Nordeste 0 -- -- 81
2019-09-02 04:00:00 12.5 10 Nordeste 21 Nordeste 0 -- -- 80
2019-09-02 03:00:00 12.6 8 Nordeste 17 Norte 0 -- -- 82
2019-09-02 02:00:00 12.9 10 Nordeste 21 Norte 0 -- -- 83
2019-09-02 01:00:00 12.8 8 Nordeste 18 Este 0 -- -- 82
2019-09-02 00:00:00 12.6 7 Norte 32 Norte 0 -- -- 81
2019-09-01 23:00:00 12.6 11 Norte 37 Norte 0 -- -- 81
2019-09-01 22:00:00 13.3 12 Norte 35 Noroeste 0 -- -- 81
2019-09-01 21:00:00 14.5 13 Norte 38 Noroeste 0 -- -- 79
2019-09-01 20:00:00 16 19 Noroeste 36 Noroeste 0 -- -- 77
2019-09-01 19:00:00 17.7 16 Norte 40 Noroeste 0 -- -- 73
2019-09-01 18:00:00 18.3 15 Norte 36 Nordeste 0 -- -- 72
2019-09-01 17:00:00 21.3 15 Noroeste 37 Noroeste 0 -- -- 64
2019-09-01 16:00:00 21.8 18 Norte 33 Noroeste 0 -- -- 57
2019-09-01 15:00:00 22.4 13 Norte 30 Nordeste 0 -- -- 57
2019-09-01 14:00:00 20.7 15 Norte 32 Noroeste 0 -- -- 62
2019-09-01 13:00:00 19.7 12 Norte 23 Norte 0 -- -- 69
2019-09-01 12:00:00 18.7 6 Norte 21 Nordeste 0 -- -- 72
2019-09-01 11:00:00 18.1 9 Norte 18 Nordeste 0 -- -- 76
2019-09-01 10:00:00 17.2 7 Nordeste 15 Este 0 -- -- 80
2019-09-01 09:00:00 16.3 4 Sudoeste 10 Noroeste 0 -- -- 87
2019-09-01 08:00:00 15.4 3 Sudoeste 13 Este 0 -- -- 88
2019-09-01 07:00:00 16.1 4 Este 10 Nordeste 0 -- -- 86
2019-09-01 06:00:00 16.2 5 Norte 11 Noroeste 0 -- -- 86
2019-09-01 05:00:00 16.1 3 Nordeste 11 Sudeste 0 -- -- 88
2019-09-01 04:00:00 16.1 3 Este 8 Este 0 -- -- 87
2019-09-01 03:00:00 16.8 5 Norte 10 Este 0 -- -- 84
2019-09-01 02:00:00 16.9 6 Este 17 Nordeste 0 -- -- 85
2019-09-01 01:00:00 16.8 6 Nordeste 20 Norte 0 -- -- 84
2019-09-01 00:00:00 16.9 8 Norte 25 Norte 0 -- -- 83
2019-08-31 23:00:00 17.3 5 Norte 22 Norte 0 -- -- 83
2019-08-31 22:00:00 17.9 10 Norte 24 Norte 0 -- -- 82
2019-08-31 21:00:00 18.1 12 Norte 30 Norte 0 -- -- 81
2019-08-31 20:00:00 19.4 14 Noroeste 34 Norte 0 -- -- 75
2019-08-31 19:00:00 21.5 15 Norte 33 Noroeste 0 -- -- 68
2019-08-31 18:00:00 21.7 15 Norte 38 Norte 0 -- -- 71
2019-08-31 17:00:00 23.9 18 Noroeste 35 Norte 0 -- -- 64
2019-08-31 16:00:00 27.3 19 Noroeste 35 Noroeste 0 -- -- 53
2019-08-31 15:00:00 32.8 13 Sudoeste 30 Sudoeste 0 -- -- 28
2019-08-31 14:00:00 31.3 12 Oeste 23 Oeste 0 -- -- 32
2019-08-31 13:00:00 29.4 4 Sur 12 Sur 0 -- -- 39
2019-08-31 12:00:00 26 5 Sudoeste 8 Sur 0 -- -- 48
2019-08-31 11:00:00 21.1 3 Sudeste 5 Este 0 -- -- 68
2019-08-31 10:00:00 15.7 3 Oeste 6 Oeste 0 -- -- 93
2019-08-31 09:00:00 12.9 4 Oeste 10 Noroeste 0 -- -- 98
2019-08-31 08:00:00 11.8 5 Oeste 9 Oeste 0 -- -- 97
2019-08-31 07:00:00 12.1 5 Oeste 9 Oeste 0 -- -- 97
2019-08-31 06:00:00 12.7 7 Noroeste 11 Oeste 0 -- -- 97
2019-08-31 05:00:00 13.2 6 Noroeste 10 Noroeste 0 -- -- 97
2019-08-31 04:00:00 14.2 6 Noroeste 8 Noroeste 0 -- -- 97
2019-08-31 03:00:00 14.5 6 Noroeste 9 Oeste 0 -- -- 96
2019-08-31 02:00:00 15.2 4 Oeste 10 Oeste 0 -- -- 95
2019-08-31 01:00:00 15.9 5 Oeste 9 Noroeste 0 -- -- 92
2019-08-31 00:00:00 17.1 2 Sur 10 Noroeste 0 -- -- 90
2019-08-30 23:00:00 18.4 0 Calma 4 Este 0 -- -- 88
2019-08-30 22:00:00 19.7 3 Nordeste 8 Este 0 -- -- 84
2019-08-30 21:00:00 22 3 Sudeste 14 Sudeste 0 -- -- 76
2019-08-30 20:00:00 25.6 4 Nordeste 26 Sudeste 0 -- -- 64
2019-08-30 19:00:00 28.7 8 Norte 24 Noroeste 0 -- -- 54
2019-08-30 18:00:00 33.4 12 Sudoeste 24 Oeste 0 -- -- 25
2019-08-30 17:00:00 33.4 14 Oeste 33 Sudoeste 0 -- -- 27
2019-08-30 16:00:00 33 9 Sur 26 Sur 0 -- -- 27
2019-08-30 15:00:00 32.5 13 Oeste 27 Sudoeste 0 -- -- 31
2019-08-30 14:00:00 30 6 Oeste 15 Noroeste 0 -- -- 38
2019-08-30 13:00:00 26.8 4 Sudoeste 9 Sudoeste 0 -- -- 52
2019-08-30 12:00:00 23.6 5 Sudoeste 11 Sudoeste 0 -- -- 61
2019-08-30 11:00:00 21.2 2 Sudoeste 9 Este 0 -- -- 69
2019-08-30 10:00:00 18.2 0 Calma 6 Norte 0 -- -- 82
2019-08-30 09:00:00 17.2 0 Calma 4 Sudoeste 0 -- -- 89
2019-08-30 08:00:00 16.9 0 Calma 3 Este 0 -- -- 89
2019-08-30 07:00:00 17 2 Este 7 Nordeste 0 -- -- 88
2019-08-30 06:00:00 17 6 Este 9 Este 0 -- -- 89
2019-08-30 05:00:00 17.3 4 Este 8 Este 0 -- -- 88
2019-08-30 04:00:00 17.4 6 Este 10 Este 0 -- -- 87
2019-08-30 03:00:00 17.9 5 Este 14 Este 0 -- -- 86
2019-08-30 02:00:00 18.5 8 Este 14 Este 0 -- -- 84
2019-08-30 01:00:00 18.5 0 Calma 10 Este 0 -- -- 85
2019-08-30 00:00:00 18.9 3 Este 6 Norte 0 -- -- 84
2019-08-29 23:00:00 19.1 3 Sudeste 10 Este 0 -- -- 83
2019-08-29 22:00:00 19.3 5 Sudeste 15 Este 0 -- -- 83
2019-08-29 21:00:00 19.4 8 Nordeste 22 Noroeste 0 -- -- 83
2019-08-29 20:00:00 20.8 14 Norte 28 Norte 0 -- -- 77
2019-08-29 19:00:00 22.5 14 Norte 35 Noroeste 0 -- -- 72
2019-08-29 18:00:00 25.3 13 Norte 32 Noroeste 0 -- -- 65
2019-08-29 17:00:00 31.9 8 Sudoeste 21 Sudoeste 0 -- -- 43
2019-08-29 16:00:00 31.8 8 Sudoeste 23 Sudoeste 0 -- -- 33
2019-08-29 15:00:00 31.3 10 Sur 30 Sudoeste 0 -- -- 34
2019-08-29 14:00:00 29 4 Oeste 12 Oeste 0 -- -- 43
2019-08-29 13:00:00 26.5 4 Oeste 11 Oeste 0 -- -- 55
2019-08-29 12:00:00 23.9 3 Sudeste 12 Este 0 -- -- 64
2019-08-29 11:00:00 21.9 5 Sudeste 12 Este 0 -- -- 70
2019-08-29 10:00:00 19.4 5 Sudeste 10 Sudeste 0 -- -- 80
2019-08-29 09:00:00 17.8 2 Este 4 Sudeste 0 -- -- 90
2019-08-29 08:00:00 17.4 2 Este 4 Este 0 -- -- 91
2019-08-29 07:00:00 17.6 0 Calma 3 Este 0 -- -- 90
2019-08-29 06:00:00 17.9 2 Este 5 Sudoeste 0 -- -- 89
2019-08-29 05:00:00 18.1 4 Sur 8 Este 0 -- -- 87
2019-08-29 04:00:00 18.2 6 Nordeste 9 Nordeste 0 -- -- 86
2019-08-29 03:00:00 18.1 7 Nordeste 13 Nordeste 0 -- -- 87
2019-08-29 02:00:00 18.2 6 Este 12 Nordeste 0 -- -- 88
2019-08-29 01:00:00 18 5 Noroeste 9 Norte 0 -- -- 87
2019-08-29 00:00:00 18.2 3 Noroeste 11 Nordeste 0 -- -- 86
2019-08-28 23:00:00 18.3 6 Este 17 Norte 0 -- -- 86
2019-08-28 22:00:00 18.8 6 Nordeste 12 Nordeste 0 -- -- 83
2019-08-28 21:00:00 19.1 3 Sudoeste 19 Noroeste 0 -- -- 82
2019-08-28 20:00:00 20.5 13 Noroeste 29 Noroeste 0 -- -- 76
2019-08-28 19:00:00 22.2 13 Noroeste 32 Norte 0 -- -- 72
2019-08-28 18:00:00 25.8 15 Noroeste 26 Norte 0 -- -- 60
2019-08-28 17:00:00 28.6 15 Noroeste 31 Noroeste 0 -- -- 49
2019-08-28 16:00:00 30.8 10 Sudoeste 22 Sudoeste 0 -- -- 34
2019-08-28 15:00:00 29.2 7 Sudoeste 27 Sudoeste 0 -- -- 37
2019-08-28 14:00:00 28.6 9 Sudoeste 28 Sudoeste 0 -- -- 40
2019-08-28 13:00:00 27.3 9 Sudoeste 21 Sudoeste 0 -- -- 42
2019-08-28 12:00:00 23.7 3 Oeste 8 Sudoeste 0 -- -- 58
2019-08-28 11:00:00 19.1 2 Sur 7 Nordeste 0 -- -- 77
2019-08-28 10:00:00 15.4 3 Oeste 8 Oeste 0 -- -- 94
2019-08-28 09:00:00 14.9 5 Oeste 9 Oeste 0 -- -- 94
2019-08-28 08:00:00 15.5 4 Oeste 8 Sudoeste 0 -- -- 93
2019-08-28 07:00:00 15.8 2 Sudoeste 4 Oeste 0 -- -- 94
2019-08-28 06:00:00 15.9 2 Oeste 4 Oeste 0 -- -- 94
2019-08-28 05:00:00 15.7 2 Oeste 6 Noroeste 0 -- -- 93
2019-08-28 04:00:00 15.6 3 Noroeste 5 Oeste 0 -- -- 93
2019-08-28 03:00:00 15.3 3 Oeste 5 Oeste 0 -- -- 94
2019-08-28 02:00:00 15.2 2 Oeste 4 Oeste 0 -- -- 94
2019-08-28 01:00:00 15 4 Oeste 8 Oeste 0 -- -- 93
2019-08-28 00:00:00 15 0 Calma 5 Sudeste 0 -- -- 91
2019-08-27 23:00:00 16.3 3 Noroeste 4 Noroeste 0 -- -- 89
2019-08-27 22:00:00 17.7 0 Calma 9 Norte 0 -- -- 84
2019-08-27 21:00:00 19.6 5 Noroeste 18 Noroeste 0 -- -- 76
2019-08-27 20:00:00 22.2 10 Noroeste 27 Norte 0 -- -- 67
2019-08-27 19:00:00 24.3 11 Norte 26 Noroeste 0 -- -- 58
2019-08-27 18:00:00 25.3 5 Norte 23 Oeste 0 -- -- 51
2019-08-27 17:00:00 25.6 8 Nordeste 17 Nordeste 0 -- -- 48
2019-08-27 16:00:00 25.3 11 Norte 28 Noroeste 0 -- -- 50
2019-08-27 15:00:00 22.7 7 Norte 15 Noroeste 0 -- -- 57
2019-08-27 14:00:00 23.1 3 Este 21 Sudeste 0 -- -- 55
2019-08-27 13:00:00 22.7 10 Sudeste 22 Sudeste 0 -- -- 57
2019-08-27 12:00:00 20.2 9 Sudeste 15 Este 0 -- -- 66
2019-08-27 11:00:00 16.8 3 Sudeste 14 Este 0 -- -- 75
2019-08-27 10:00:00 12.7 4 Este 8 Sudeste 0 -- -- 97
2019-08-27 09:00:00 9.1 0 Calma 13 Oeste 0 -- -- 98
2019-08-27 08:00:00 8.6 5 Oeste 9 Oeste 0 -- -- 98
2019-08-27 07:00:00 8.7 2 Este 7 Oeste 0 -- -- 97
2019-08-27 06:00:00 8.9 6 Este 9 Sudoeste 0 -- -- 97
2019-08-27 05:00:00 9.5 6 Oeste 9 Oeste 0 -- -- 96
2019-08-27 04:00:00 10.2 3 Noroeste 9 Noroeste 0 -- -- 96
2019-08-27 03:00:00 10.7 5 Oeste 13 Oeste 0 -- -- 96
2019-08-27 02:00:00 11.4 6 Oeste 15 Noroeste 0 -- -- 94
2019-08-27 01:00:00 12.4 4 Oeste 10 Noroeste 0 -- -- 92
2019-08-27 00:00:00 14.3 0 Calma 7 Noroeste 0 -- -- 89
2019-08-26 23:00:00 15.9 0 Calma 14 Este 0 -- -- 84
2019-08-26 22:00:00 16.6 7 Este 12 Nordeste 0 -- -- 88
2019-08-26 21:00:00 17.8 4 Nordeste 13 Este 0 -- -- 82
2019-08-26 20:00:00 18.7 6 Este 18 Este 0 -- -- 77
2019-08-26 19:00:00 19.4 5 Sur 22 Este 0 -- -- 74
2019-08-26 18:00:00 18.5 12 Este 21 Sudeste 0 -- -- 77
2019-08-26 17:00:00 21.3 12 Nordeste 24 Este 0 -- -- 60
2019-08-26 16:00:00 25 9 Sudoeste 26 Sudoeste 0 -- -- 48
2019-08-26 15:00:00 24.8 4 Oeste 11 Sudoeste 0 -- -- 53
2019-08-26 14:00:00 23.5 3 Norte 14 Sudoeste 0 -- -- 63
2019-08-26 13:00:00 20.9 10 Noroeste 21 Oeste 0 -- -- 72
2019-08-26 12:00:00 18.5 3 Norte 8 Nordeste 0 -- -- 91
2019-08-26 11:00:00 15.9 3 Sur 15 Oeste 0 -- -- 99
2019-08-26 10:00:00 14.2 5 Oeste 9 Oeste 0 -- -- 99
2019-08-26 09:00:00 13 4 Oeste 10 Oeste 0 -- -- 98
2019-08-26 08:00:00 12.8 2 Nordeste 7 Este 0 -- -- 98
2019-08-26 07:00:00 12.4 3 Este 7 Este 0 -- -- 98
2019-08-26 06:00:00 12.5 2 Sudeste 9 Este 0 -- -- 97
2019-08-26 05:00:00 13 6 Oeste 10 Oeste 0 -- -- 97
2019-08-26 04:00:00 13.4 3 Sudoeste 8 Oeste 0 -- -- 96
2019-08-26 03:00:00 14.1 0 Calma 7 Noroeste 0 -- -- 95
2019-08-26 02:00:00 15 3 Oeste 7 Este 0 -- -- 95
2019-08-26 01:00:00 15.4 6 Este 13 Nordeste 0 -- -- 93
2019-08-26 00:00:00 15.8 6 Nordeste 12 Este 0 -- -- 91
2019-08-25 23:00:00 15.7 5 Este 20 Este 0 -- -- 93
2019-08-25 22:00:00 15.6 10 Este 16 Nordeste 0.6 -- -- 94
2019-08-25 21:00:00 15.8 7 Nordeste 10 Este 0.2 -- -- 92
2019-08-25 20:00:00 15.9 5 Nordeste 38 Norte 3.2 -- -- 90
2019-08-25 19:00:00 15.9 12 Norte 37 Noroeste 17.4 -- -- 94
2019-08-25 18:00:00 18.6 10 Noroeste 32 Norte 0 -- -- 77
2019-08-25 17:00:00 22 14 Noroeste 42 Noroeste 0 -- -- 66
2019-08-25 16:00:00 24.2 22 Noroeste 35 Noroeste 0 -- -- 59
2019-08-25 15:00:00 29.7 13 Nordeste 22 Nordeste 0 -- -- 41
2019-08-25 14:00:00 27.9 10 Este 18 Sudeste 0 -- -- 46
2019-08-25 13:00:00 25 7 Sudeste 12 Sudeste 0 -- -- 55
2019-08-25 12:00:00 21.3 6 Oeste 10 Oeste 0 -- -- 66
2019-08-25 11:00:00 18.1 2 Este 7 Sudeste 0 -- -- 78
2019-08-25 10:00:00 14.1 2 Noroeste 6 Oeste 0 -- -- 91
2019-08-25 09:00:00 11.3 3 Oeste 6 Noroeste 0 -- -- 94
2019-08-25 08:00:00 10.1 0 Calma 7 Oeste 0 -- -- 95
2019-08-25 07:00:00 9.4 3 Oeste 6 Oeste 0 -- -- 95
2019-08-25 06:00:00 9.2 3 Oeste 8 Oeste 0 -- -- 94
2019-08-25 05:00:00 9.4 4 Oeste 5 Noroeste 0 -- -- 93
2019-08-25 04:00:00 10.3 0 Calma 4 Noroeste 0 -- -- 93
2019-08-25 03:00:00 11 4 Oeste 9 Noroeste 0 -- -- 93
2019-08-25 02:00:00 12.1 7 Oeste 9 Oeste 0 -- -- 92
2019-08-25 01:00:00 13.5 2 Sudoeste 4 Este 0 -- -- 90
2019-08-25 00:00:00 15.2 0 Calma 6 Nordeste 0 -- -- 88
2019-08-24 23:00:00 16.6 5 Este 8 Nordeste 0 -- -- 85
2019-08-24 22:00:00 17.4 4 Nordeste 10 Nordeste 0 -- -- 83
2019-08-24 21:00:00 18.8 10 Norte 23 Norte 0 -- -- 80
2019-08-24 20:00:00 21.7 14 Norte 30 Noroeste 0 -- -- 69
2019-08-24 19:00:00 27.9 13 Noroeste 21 Noroeste 0 -- -- 45
2019-08-24 18:00:00 32.6 8 Sur 19 Sudoeste 0 -- -- 22
2019-08-24 17:00:00 33.1 8 Este 21 Sudeste 0 -- -- 20
2019-08-24 16:00:00 32.6 7 Noroeste 16 Oeste 0 -- -- 22
2019-08-24 15:00:00 32.8 12 Nordeste 20 Este 0 -- -- 23
2019-08-24 14:00:00 32.1 7 Sudeste 15 Este 0 -- -- 25
2019-08-24 13:00:00 29.4 6 Este 15 Este 0 -- -- 31
2019-08-24 12:00:00 24.6 3 Sur 10 Sudeste 0 -- -- 43
2019-08-24 11:00:00 20.3 3 Sudeste 10 Este 0 -- -- 50
2019-08-24 10:00:00 15 3 Sur 8 Sudeste 0 -- -- 66
2019-08-24 09:00:00 9.7 4 Sudeste 8 Sudoeste 0 -- -- 85
2019-08-24 08:00:00 6.6 0 Calma 5 Sudoeste 0 -- -- 92
2019-08-24 07:00:00 7.1 0 Calma 5 Sudoeste 0 -- -- 91
2019-08-24 06:00:00 7.7 4 Oeste 8 Sudoeste 0 -- -- 91
2019-08-24 05:00:00 8.1 4 Sudoeste 8 Noroeste 0 -- -- 88
2019-08-24 04:00:00 8.9 3 Noroeste 8 Noroeste 0 -- -- 88
2019-08-24 03:00:00 9.8 5 Oeste 7 Sudoeste 0 -- -- 83
2019-08-24 02:00:00 10.9 2 Oeste 7 Oeste 0 -- -- 80
2019-08-24 01:00:00 12.5 2 Oeste 7 Oeste 0 -- -- 75
2019-08-24 00:00:00 14 0 Calma 15 Oeste 0 -- -- 69
2019-08-23 23:00:00 16.7 3 Oeste 7 Oeste 0 -- -- 59
2019-08-23 22:00:00 21.1 2 Sudoeste 7 Noroeste 0 -- -- 45
2019-08-23 21:00:00 25.5 4 Este 24 Noroeste 0 -- -- 34
2019-08-23 20:00:00 28.5 10 Noroeste 24 Nordeste 0 -- -- 29
2019-08-23 19:00:00 29.9 13 Noroeste 27 Norte 0 -- -- 25
2019-08-23 18:00:00 31.5 12 Norte 26 Norte 0 -- -- 25
2019-08-23 17:00:00 32.5 6 Sudoeste 30 Oeste 0 -- -- 17
2019-08-23 16:00:00 32.4 10 Oeste 24 Sudoeste 0 -- -- 16
2019-08-23 15:00:00 31.7 7 Sudeste 23 Oeste 0 -- -- 18
2019-08-23 14:00:00 30 9 Oeste 19 Oeste 0 -- -- 23
2019-08-23 13:00:00 28.1 5 Sudoeste 13 Sudeste 0 -- -- 29
2019-08-23 12:00:00 23.1 5 Este 9 Este 0 -- -- 43
2019-08-23 11:00:00 17.1 4 Este 8 Este 0 -- -- 60
2019-08-23 10:00:00 11.7 2 Este 5 Este 0 -- -- 77
2019-08-23 09:00:00 7 2 Este 5 Sudoeste 0 -- -- 96
2019-08-23 08:00:00 4 3 Oeste 7 Oeste 0 -- -- 96
2019-08-23 07:00:00 4.3 4 Oeste 7 Oeste 0 -- -- 95
2019-08-23 06:00:00 4.8 4 Oeste 8 Oeste 0 -- -- 94
2019-08-23 05:00:00 5.8 3 Oeste 9 Oeste 0 -- -- 94
2019-08-23 04:00:00 6.9 2 Este 14 Oeste 0 -- -- 94
2019-08-23 03:00:00 7.3 6 Oeste 9 Oeste 0 -- -- 92
2019-08-23 02:00:00 8.9 0 Calma 8 Sudoeste 0 -- -- 90
2019-08-23 01:00:00 10.5 0 Calma 4 Sudoeste 0 -- -- 87
2019-08-23 00:00:00 12.6 0 Calma 6 Noroeste 0 -- -- 83
2019-08-22 23:00:00 14.9 0 Calma 8 Oeste 0 -- -- 73
2019-08-22 22:00:00 18.7 2 Sudoeste 17 Norte 0 -- -- 60
2019-08-22 21:00:00 21.8 11 Norte 15 Norte 0 -- -- 50
2019-08-22 20:00:00 25.2 9 Nordeste 20 Nordeste 0 -- -- 32
2019-08-22 19:00:00 26.3 12 Nordeste 24 Nordeste 0 -- -- 31
2019-08-22 18:00:00 27.4 13 Nordeste 26 Este 0 -- -- 23
2019-08-22 17:00:00 27.6 12 Nordeste 26 Nordeste 0 -- -- 22
2019-08-22 16:00:00 27.4 10 Este 26 Este 0 -- -- 26
2019-08-22 15:00:00 26.5 15 Este 29 Este 0 -- -- 24
2019-08-22 14:00:00 25.2 9 Este 24 Sudeste 0 -- -- 28
2019-08-22 13:00:00 23 14 Este 23 Sudeste 0 -- -- 36
2019-08-22 12:00:00 19.6 12 Sudeste 18 Este 0 -- -- 53
2019-08-22 11:00:00 14 5 Este 11 Este 0 -- -- 75
2019-08-22 10:00:00 8.4 6 Este 9 Sudeste 0 -- -- 99
2019-08-22 09:00:00 6.5 2 Este 8 Oeste 0 -- -- 98
2019-08-22 08:00:00 6.2 2 Sudoeste 13 Oeste 0 -- -- 97
2019-08-22 07:00:00 7 3 Oeste 5 Nordeste 0 -- -- 97
2019-08-22 06:00:00 7.2 2 Noroeste 9 Oeste 0 -- -- 96
2019-08-22 05:00:00 7.8 4 Oeste 8 Oeste 0 -- -- 95
2019-08-22 04:00:00 8.7 3 Noroeste 12 Oeste 0 -- -- 94
2019-08-22 03:00:00 9.4 4 Noroeste 10 Oeste 0 -- -- 92
2019-08-22 02:00:00 11.5 3 Noroeste 8 Noroeste 0 -- -- 91
2019-08-22 01:00:00 13.3 0 Calma 8 Nordeste 0 -- -- 88
2019-08-22 00:00:00 14.7 3 Sudoeste 16 Norte 0 -- -- 85
2019-08-21 23:00:00 15.2 8 Norte 17 Norte 0 -- -- 83
2019-08-21 22:00:00 16.1 11 Norte 25 Noroeste 0 -- -- 80
2019-08-21 21:00:00 17.4 14 Norte 32 Norte 0 -- -- 72
2019-08-21 20:00:00 19.9 19 Norte 36 Noroeste 0 -- -- 64
2019-08-21 19:00:00 22.2 18 Norte 33 Noroeste 0 -- -- 59
2019-08-21 18:00:00 24.6 13 Norte 31 Noroeste 0 -- -- 50
2019-08-21 17:00:00 25.4 14 Noroeste 35 Noroeste 0 -- -- 49
2019-08-21 16:00:00 26.2 11 Norte 22 Noroeste 0 -- -- 45
2019-08-21 15:00:00 25.8 7 Sudeste 27 Norte 0 -- -- 46
2019-08-21 14:00:00 24.8 8 Norte 18 Nordeste 0 -- -- 49
2019-08-21 13:00:00 22.6 5 Noroeste 18 Sudeste 0 -- -- 54
2019-08-21 12:00:00 19.9 7 Sudeste 16 Sudeste 0 -- -- 60
2019-08-21 11:00:00 17.7 4 Sur 10 Sudoeste 0 -- -- 69
2019-08-21 10:00:00 14.3 5 Noroeste 8 Oeste 0 -- -- 80
2019-08-21 09:00:00 12.6 3 Oeste 8 Noroeste 0 -- -- 86
2019-08-21 08:00:00 11.4 4 Noroeste 9 Noroeste 0 -- -- 90
2019-08-21 07:00:00 11.4 0 Calma 9 Oeste 0 -- -- 90
2019-08-21 06:00:00 11.3 3 Noroeste 12 Noroeste 0 -- -- 90
2019-08-21 05:00:00 11.4 2 Oeste 8 Nordeste 0 -- -- 88
2019-08-21 04:00:00 12.7 4 Norte 10 Norte 0 -- -- 84
2019-08-21 03:00:00 13.1 4 Nordeste 8 Norte 0 -- -- 82
2019-08-21 02:00:00 13.2 4 Norte 10 Norte 0 -- -- 82
2019-08-21 01:00:00 13.2 6 Norte 10 Norte 0 -- -- 81
2019-08-21 00:00:00 13 6 Norte 13 Norte 0 -- -- 81